Terminal Aerodrome Forecast
Issued by NWS

Home | Current Version | Previous Version | Text Only | Print | Product List | Glossary On
Versions: 1 2 3 4 5 6 7 8 9 10 11 12
000
FTUS46 KMFR 221700
TAFLMT
TAF
KLMT 221740Z 2218/2318 VRB03KT P6SM SCT200
     FM221900 20008KT P6SM BKN150
     FM230100 23010KT P6SM FEW060 BKN150
     FM230400 VRB03KT P6SM SCT060 OVC120
     FM231700 17010KT P6SM SCT060 OVC100=

USA.gov is the U.S. government's official web portal to all federal, state and local government web resources and services.